sensor_id;sensor_type;location;lat;lon;timestamp;temperature;humidity
39815;DHT22;25495;45.948;4.568;2022-11-20T00:01:14;6.00;99.90
39815;DHT22;25495;45.948;4.568;2022-11-20T00:03:40;6.00;99.90
39815;DHT22;25495;45.948;4.568;2022-11-20T00:06:09;6.00;99.90
39815;DHT22;25495;45.948;4.568;2022-11-20T00:08:35;6.00;99.90
39815;DHT22;25495;45.948;4.568;2022-11-20T00:11:09;6.00;99.90
39815;DHT22;25495;45.948;4.568;2022-11-20T00:13:35;6.00;99.90
39815;DHT22;25495;45.948;4.568;2022-11-20T00:16:04;6.00;99.90
39815;DHT22;25495;45.948;4.568;2022-11-20T00:18:30;6.00;99.90
39815;DHT22;25495;45.948;4.568;2022-11-20T00:21:13;6.00;99.90
39815;DHT22;25495;45.948;4.568;2022-11-20T00:23:39;6.10;99.90
39815;DHT22;25495;45.948;4.568;2022-11-20T00:26:10;6.10;99.90
39815;DHT22;25495;45.948;4.568;2022-11-20T00:28:36;6.10;99.90
39815;DHT22;25495;45.948;4.568;2022-11-20T00:33:28;6.20;99.90
39815;DHT22;25495;45.948;4.568;2022-11-20T00:36:06;6.20;99.90
39815;DHT22;25495;45.948;4.568;2022-11-20T00:38:33;6.10;99.90
39815;DHT22;25495;45.948;4.568;2022-11-20T00:41:04;6.20;99.90
39815;DHT22;25495;45.948;4.568;2022-11-20T00:43:32;6.20;99.90
39815;DHT22;25495;45.948;4.568;2022-11-20T00:46:09;6.20;99.90
39815;DHT22;25495;45.948;4.568;2022-11-20T00:48:35;6.20;99.90
39815;DHT22;25495;45.948;4.568;2022-11-20T00:51:01;6.20;99.90
39815;DHT22;25495;45.948;4.568;2022-11-20T00:53:27;6.10;99.90
39815;DHT22;25495;45.948;4.568;2022-11-20T00:55:56;6.10;99.90
39815;DHT22;25495;45.948;4.568;2022-11-20T00:58:23;6.10;99.90
39815;DHT22;25495;45.948;4.568;2022-11-20T01:00:49;6.10;99.90
39815;DHT22;25495;45.948;4.568;2022-11-20T01:03:16;6.10;99.90
39815;DHT22;25495;45.948;4.568;2022-11-20T01:05:42;6.10;99.90
39815;DHT22;25495;45.948;4.568;2022-11-20T01:08:08;6.20;99.90
39815;DHT22;25495;45.948;4.568;2022-11-20T01:10:34;6.20;99.90
39815;DHT22;25495;45.948;4.568;2022-11-20T01:12:59;6.10;99.90
39815;DHT22;25495;45.948;4.568;2022-11-20T01:15:43;6.10;99.90
39815;DHT22;25495;45.948;4.568;2022-11-20T01:18:09;6.10;99.90
39815;DHT22;25495;45.948;4.568;2022-11-20T01:20:35;6.10;99.90
39815;DHT22;25495;45.948;4.568;2022-11-20T01:23:04;6.10;99.90
39815;DHT22;25495;45.948;4.568;2022-11-20T01:25:30;6.30;99.90
39815;DHT22;25495;45.948;4.568;2022-11-20T01:27:56;6.20;99.90
39815;DHT22;25495;45.948;4.568;2022-11-20T01:30:21;6.10;99.90
39815;DHT22;25495;45.948;4.568;2022-11-20T01:32:47;6.10;99.90
39815;DHT22;25495;45.948;4.568;2022-11-20T01:35:13;6.10;99.90
39815;DHT22;25495;45.948;4.568;2022-11-20T01:37:40;6.00;99.90
39815;DHT22;25495;45.948;4.568;2022-11-20T01:40:06;6.10;99.90
39815;DHT22;25495;45.948;4.568;2022-11-20T01:42:32;6.00;99.90
39815;DHT22;25495;45.948;4.568;2022-11-20T01:48:14;6.00;99.90
39815;DHT22;25495;45.948;4.568;2022-11-20T01:50:40;6.00;99.90
39815;DHT22;25495;45.948;4.568;2022-11-20T01:53:10;6.10;99.90
39815;DHT22;25495;45.948;4.568;2022-11-20T01:55:45;6.10;99.90
39815;DHT22;25495;45.948;4.568;2022-11-20T01:58:13;6.00;99.90
39815;DHT22;25495;45.948;4.568;2022-11-20T02:00:40;6.00;99.90
39815;DHT22;25495;45.948;4.568;2022-11-20T02:03:11;6.10;99.90
39815;DHT22;25495;45.948;4.568;2022-11-20T02:05:39;6.00;99.90
39815;DHT22;25495;45.948;4.568;2022-11-20T02:08:07;6.00;99.90
39815;DHT22;25495;45.948;4.568;2022-11-20T02:10:39;6.00;99.90
39815;DHT22;25495;45.948;4.568;2022-11-20T02:13:05;6.00;99.90
39815;DHT22;25495;45.948;4.568;2022-11-20T02:15:50;6.00;99.90
39815;DHT22;25495;45.948;4.568;2022-11-20T02:18:18;6.00;99.90
39815;DHT22;25495;45.948;4.568;2022-11-20T02:20:48;6.00;99.90
39815;DHT22;25495;45.948;4.568;2022-11-20T02:26:23;6.00;99.90
39815;DHT22;25495;45.948;4.568;2022-11-20T02:28:49;5.90;99.90
39815;DHT22;25495;45.948;4.568;2022-11-20T02:31:15;5.90;99.90
39815;DHT22;25495;45.948;4.568;2022-11-20T02:33:41;5.90;99.90
39815;DHT22;25495;45.948;4.568;2022-11-20T02:36:11;5.90;99.90
39815;DHT22;25495;45.948;4.568;2022-11-20T02:38:39;5.80;99.90
39815;DHT22;25495;45.948;4.568;2022-11-20T02:41:05;5.90;99.90
39815;DHT22;25495;45.948;4.568;2022-11-20T02:43:31;5.80;99.90
39815;DHT22;25495;45.948;4.568;2022-11-20T02:45:56;5.80;99.90
39815;DHT22;25495;45.948;4.568;2022-11-20T02:48:22;5.80;99.90
39815;DHT22;25495;45.948;4.568;2022-11-20T02:50:48;5.80;99.90
39815;DHT22;25495;45.948;4.568;2022-11-20T02:53:14;5.80;99.90
39815;DHT22;25495;45.948;4.568;2022-11-20T02:55:39;5.90;99.90
39815;DHT22;25495;45.948;4.568;2022-11-20T02:58:05;5.80;99.90
39815;DHT22;25495;45.948;4.568;2022-11-20T03:00:31;5.80;99.90
39815;DHT22;25495;45.948;4.568;2022-11-20T03:02:57;5.80;99.90
39815;DHT22;25495;45.948;4.568;2022-11-20T03:05:23;5.80;99.90
39815;DHT22;25495;45.948;4.568;2022-11-20T03:07:49;5.80;99.90
39815;DHT22;25495;45.948;4.568;2022-11-20T03:10:14;5.80;99.90
39815;DHT22;25495;45.948;4.568;2022-11-20T03:12:40;5.80;99.90
39815;DHT22;25495;45.948;4.568;2022-11-20T03:15:06;5.80;99.90
39815;DHT22;25495;45.948;4.568;2022-11-20T03:17:32;5.70;99.90
39815;DHT22;25495;45.948;4.568;2022-11-20T03:19:58;5.80;99.90
39815;DHT22;25495;45.948;4.568;2022-11-20T03:22:23;5.70;99.90
39815;DHT22;25495;45.948;4.568;2022-11-20T03:24:49;5.70;99.90
39815;DHT22;25495;45.948;4.568;2022-11-20T03:27:15;5.70;99.90
39815;DHT22;25495;45.948;4.568;2022-11-20T03:29:40;5.70;99.90
39815;DHT22;25495;45.948;4.568;2022-11-20T03:32:06;5.70;99.90
39815;DHT22;25495;45.948;4.568;2022-11-20T03:34:32;5.70;99.90
39815;DHT22;25495;45.948;4.568;2022-11-20T03:36:58;5.70;99.90
39815;DHT22;25495;45.948;4.568;2022-11-20T03:39:24;5.70;99.90
39815;DHT22;25495;45.948;4.568;2022-11-20T03:41:49;5.60;99.90
39815;DHT22;25495;45.948;4.568;2022-11-20T03:44:15;5.60;99.90
39815;DHT22;25495;45.948;4.568;2022-11-20T03:46:41;5.60;99.90
39815;DHT22;25495;45.948;4.568;2022-11-20T03:49:06;5.70;99.90
39815;DHT22;25495;45.948;4.568;2022-11-20T03:51:34;5.70;99.90
39815;DHT22;25495;45.948;4.568;2022-11-20T03:54:03;5.70;99.90
39815;DHT22;25495;45.948;4.568;2022-11-20T03:56:30;5.70;99.90
39815;DHT22;25495;45.948;4.568;2022-11-20T03:58:57;5.70;99.90
39815;DHT22;25495;45.948;4.568;2022-11-20T04:01:25;5.60;99.90
39815;DHT22;25495;45.948;4.568;2022-11-20T04:03:52;5.60;99.90
39815;DHT22;25495;45.948;4.568;2022-11-20T04:06:27;5.50;99.90
39815;DHT22;25495;45.948;4.568;2022-11-20T04:08:57;5.50;99.90
39815;DHT22;25495;45.948;4.568;2022-11-20T04:11:28;5.50;99.90
39815;DHT22;25495;45.948;4.568;2022-11-20T04:14:00;5.50;99.90
39815;DHT22;25495;45.948;4.568;2022-11-20T04:16:28;5.50;99.90
39815;DHT22;25495;45.948;4.568;2022-11-20T04:18:56;5.50;99.90
39815;DHT22;25495;45.948;4.568;2022-11-20T04:21:21;5.50;99.90
39815;DHT22;25495;45.948;4.568;2022-11-20T04:23:48;5.50;99.90
39815;DHT22;25495;45.948;4.568;2022-11-20T04:26:14;5.50;99.90
39815;DHT22;25495;45.948;4.568;2022-11-20T04:28:39;5.50;99.90
39815;DHT22;25495;45.948;4.568;2022-11-20T04:31:15;5.50;99.90
39815;DHT22;25495;45.948;4.568;2022-11-20T04:33:41;5.50;99.90
39815;DHT22;25495;45.948;4.568;2022-11-20T04:36:11;5.50;99.90
39815;DHT22;25495;45.948;4.568;2022-11-20T04:38:38;5.50;99.90
39815;DHT22;25495;45.948;4.568;2022-11-20T04:41:06;5.50;99.90
39815;DHT22;25495;45.948;4.568;2022-11-20T04:43:32;5.50;99.90
39815;DHT22;25495;45.948;4.568;2022-11-20T04:45:59;5.50;99.90
39815;DHT22;25495;45.948;4.568;2022-11-20T04:48:26;5.50;99.90
39815;DHT22;25495;45.948;4.568;2022-11-20T04:50:52;5.50;99.90
39815;DHT22;25495;45.948;4.568;2022-11-20T04:53:19;5.50;99.90
39815;DHT22;25495;45.948;4.568;2022-11-20T04:55:45;5.50;99.90
39815;DHT22;25495;45.948;4.568;2022-11-20T04:58:11;5.60;99.90
39815;DHT22;25495;45.948;4.568;2022-11-20T05:00:37;5.50;99.90
39815;DHT22;25495;45.948;4.568;2022-11-20T05:03:03;5.60;99.90
39815;DHT22;25495;45.948;4.568;2022-11-20T05:05:29;5.50;99.90
39815;DHT22;25495;45.948;4.568;2022-11-20T05:07:58;5.50;99.90
39815;DHT22;25495;45.948;4.568;2022-11-20T05:10:25;5.50;99.90
39815;DHT22;25495;45.948;4.568;2022-11-20T05:12:51;5.50;99.90
39815;DHT22;25495;45.948;4.568;2022-11-20T05:15:17;5.60;99.90
39815;DHT22;25495;45.948;4.568;2022-11-20T05:17:52;5.60;99.90
39815;DHT22;25495;45.948;4.568;2022-11-20T05:20:19;5.60;99.90
39815;DHT22;25495;45.948;4.568;2022-11-20T05:22:45;5.60;99.90
39815;DHT22;25495;45.948;4.568;2022-11-20T05:25:11;5.60;99.90
39815;DHT22;25495;45.948;4.568;2022-11-20T05:27:37;5.60;99.90
39815;DHT22;25495;45.948;4.568;2022-11-20T05:30:04;5.60;99.90
39815;DHT22;25495;45.948;4.568;2022-11-20T05:32:30;5.60;99.90
39815;DHT22;25495;45.948;4.568;2022-11-20T05:34:56;5.60;99.90
39815;DHT22;25495;45.948;4.568;2022-11-20T05:37:22;5.70;99.90
39815;DHT22;25495;45.948;4.568;2022-11-20T05:39:47;5.70;99.90
39815;DHT22;25495;45.948;4.568;2022-11-20T05:42:13;5.70;99.90
39815;DHT22;25495;45.948;4.568;2022-11-20T05:45:02;5.70;99.90
39815;DHT22;25495;45.948;4.568;2022-11-20T05:47:28;5.70;99.90
39815;DHT22;25495;45.948;4.568;2022-11-20T05:49:56;5.80;99.90
39815;DHT22;25495;45.948;4.568;2022-11-20T05:52:22;5.70;99.90
39815;DHT22;25495;45.948;4.568;2022-11-20T05:54:48;5.70;99.90
39815;DHT22;25495;45.948;4.568;2022-11-20T05:57:14;5.60;99.90
39815;DHT22;25495;45.948;4.568;2022-11-20T05:59:39;5.70;99.90
39815;DHT22;25495;45.948;4.568;2022-11-20T06:02:05;5.60;99.90
39815;DHT22;25495;45.948;4.568;2022-11-20T06:04:31;5.60;99.90
39815;DHT22;25495;45.948;4.568;2022-11-20T06:06:56;5.60;99.90
39815;DHT22;25495;45.948;4.568;2022-11-20T06:09:22;5.60;99.90
39815;DHT22;25495;45.948;4.568;2022-11-20T06:11:48;5.50;99.90
39815;DHT22;25495;45.948;4.568;2022-11-20T06:14:14;5.50;99.90
39815;DHT22;25495;45.948;4.568;2022-11-20T06:16:39;5.50;99.90
39815;DHT22;25495;45.948;4.568;2022-11-20T06:19:06;5.40;99.90
39815;DHT22;25495;45.948;4.568;2022-11-20T06:21:32;5.40;99.90
39815;DHT22;25495;45.948;4.568;2022-11-20T06:23:58;5.40;99.90
39815;DHT22;25495;45.948;4.568;2022-11-20T06:26:25;5.30;99.90
39815;DHT22;25495;45.948;4.568;2022-11-20T06:28:53;5.30;99.90
39815;DHT22;25495;45.948;4.568;2022-11-20T06:31:24;5.30;99.90
39815;DHT22;25495;45.948;4.568;2022-11-20T06:33:50;5.30;99.90
39815;DHT22;25495;45.948;4.568;2022-11-20T06:36:18;5.30;99.90
39815;DHT22;25495;45.948;4.568;2022-11-20T06:38:44;5.20;99.90
39815;DHT22;25495;45.948;4.568;2022-11-20T06:41:12;5.30;99.90
39815;DHT22;25495;45.948;4.568;2022-11-20T06:43:38;5.20;99.90
39815;DHT22;25495;45.948;4.568;2022-11-20T06:46:04;5.20;99.90
39815;DHT22;25495;45.948;4.568;2022-11-20T06:48:30;5.20;99.90
39815;DHT22;25495;45.948;4.568;2022-11-20T06:50:56;5.10;99.90
39815;DHT22;25495;45.948;4.568;2022-11-20T06:53:23;5.00;99.90
39815;DHT22;25495;45.948;4.568;2022-11-20T06:55:50;5.00;99.90
39815;DHT22;25495;45.948;4.568;2022-11-20T06:58:17;5.00;99.90
39815;DHT22;25495;45.948;4.568;2022-11-20T07:00:43;5.00;99.90
39815;DHT22;25495;45.948;4.568;2022-11-20T07:03:10;5.00;99.90
39815;DHT22;25495;45.948;4.568;2022-11-20T07:05:36;5.00;99.90
39815;DHT22;25495;45.948;4.568;2022-11-20T07:08:03;4.90;99.90
39815;DHT22;25495;45.948;4.568;2022-11-20T07:10:29;4.90;99.90
39815;DHT22;25495;45.948;4.568;2022-11-20T07:12:55;4.90;99.90
39815;DHT22;25495;45.948;4.568;2022-11-20T07:15:22;4.80;99.90
39815;DHT22;25495;45.948;4.568;2022-11-20T07:17:48;4.80;99.90
39815;DHT22;25495;45.948;4.568;2022-11-20T07:20:15;4.80;99.90
39815;DHT22;25495;45.948;4.568;2022-11-20T07:22:41;4.80;99.90
39815;DHT22;25495;45.948;4.568;2022-11-20T07:25:07;4.80;99.90
39815;DHT22;25495;45.948;4.568;2022-11-20T07:27:33;4.80;99.90
39815;DHT22;25495;45.948;4.568;2022-11-20T07:29:59;4.70;99.90
39815;DHT22;25495;45.948;4.568;2022-11-20T07:32:26;4.60;99.90
39815;DHT22;25495;45.948;4.568;2022-11-20T07:34:51;4.60;99.90
39815;DHT22;25495;45.948;4.568;2022-11-20T07:37:17;4.60;99.90
39815;DHT22;25495;45.948;4.568;2022-11-20T07:39:43;4.60;99.90
39815;DHT22;25495;45.948;4.568;2022-11-20T07:42:09;4.60;99.90
39815;DHT22;25495;45.948;4.568;2022-11-20T07:44:35;4.70;99.90
39815;DHT22;25495;45.948;4.568;2022-11-20T07:47:01;4.80;99.90
39815;DHT22;25495;45.948;4.568;2022-11-20T07:49:27;5.00;99.90
39815;DHT22;25495;45.948;4.568;2022-11-20T07:51:53;5.30;99.90
39815;DHT22;25495;45.948;4.568;2022-11-20T07:54:21;5.60;99.90
39815;DHT22;25495;45.948;4.568;2022-11-20T07:56:48;5.70;99.90
39815;DHT22;25495;45.948;4.568;2022-11-20T07:59:15;5.70;99.90
39815;DHT22;25495;45.948;4.568;2022-11-20T08:01:42;6.10;99.90
39815;DHT22;25495;45.948;4.568;2022-11-20T08:04:08;5.90;99.90
39815;DHT22;25495;45.948;4.568;2022-11-20T08:06:35;6.00;99.90
39815;DHT22;25495;45.948;4.568;2022-11-20T08:09:00;6.10;99.90
39815;DHT22;25495;45.948;4.568;2022-11-20T08:11:26;6.20;99.90
39815;DHT22;25495;45.948;4.568;2022-11-20T08:14:10;6.30;99.90
39815;DHT22;25495;45.948;4.568;2022-11-20T08:16:40;6.50;99.90
39815;DHT22;25495;45.948;4.568;2022-11-20T08:19:06;6.60;99.90
39815;DHT22;25495;45.948;4.568;2022-11-20T08:21:32;6.70;99.90
39815;DHT22;25495;45.948;4.568;2022-11-20T08:23:58;6.40;99.90
39815;DHT22;25495;45.948;4.568;2022-11-20T08:26:25;6.20;99.90
39815;DHT22;25495;45.948;4.568;2022-11-20T08:28:57;6.00;99.90
39815;DHT22;25495;45.948;4.568;2022-11-20T08:31:24;6.00;99.90
39815;DHT22;25495;45.948;4.568;2022-11-20T08:33:50;6.00;99.90
39815;DHT22;25495;45.948;4.568;2022-11-20T08:36:17;5.90;99.90
39815;DHT22;25495;45.948;4.568;2022-11-20T08:38:47;5.90;99.90
39815;DHT22;25495;45.948;4.568;2022-11-20T08:41:13;5.90;99.90
39815;DHT22;25495;45.948;4.568;2022-11-20T08:43:59;6.10;99.90
39815;DHT22;25495;45.948;4.568;2022-11-20T08:46:26;6.30;99.90
39815;DHT22;25495;45.948;4.568;2022-11-20T08:48:52;6.40;99.90
39815;DHT22;25495;45.948;4.568;2022-11-20T08:51:19;6.60;99.90
39815;DHT22;25495;45.948;4.568;2022-11-20T08:53:46;6.50;99.90
39815;DHT22;25495;45.948;4.568;2022-11-20T08:56:14;6.50;99.90
39815;DHT22;25495;45.948;4.568;2022-11-20T08:58:40;6.60;99.90
39815;DHT22;25495;45.948;4.568;2022-11-20T09:01:06;6.60;99.90
39815;DHT22;25495;45.948;4.568;2022-11-20T09:03:32;6.50;99.90
39815;DHT22;25495;45.948;4.568;2022-11-20T09:06:04;6.80;99.90
39815;DHT22;25495;45.948;4.568;2022-11-20T09:08:30;6.90;99.90
39815;DHT22;25495;45.948;4.568;2022-11-20T09:10:57;7.30;99.90
39815;DHT22;25495;45.948;4.568;2022-11-20T09:13:23;7.50;99.90
39815;DHT22;25495;45.948;4.568;2022-11-20T09:15:58;7.50;99.90
39815;DHT22;25495;45.948;4.568;2022-11-20T09:18:24;8.10;99.90
39815;DHT22;25495;45.948;4.568;2022-11-20T09:20:50;8.10;99.90
39815;DHT22;25495;45.948;4.568;2022-11-20T09:23:17;8.30;99.90
39815;DHT22;25495;45.948;4.568;2022-11-20T09:25:43;8.30;99.90
39815;DHT22;25495;45.948;4.568;2022-11-20T09:28:09;8.40;99.90
39815;DHT22;25495;45.948;4.568;2022-11-20T09:30:35;8.60;99.90
39815;DHT22;25495;45.948;4.568;2022-11-20T09:33:01;8.70;99.90
39815;DHT22;25495;45.948;4.568;2022-11-20T09:37:53;8.80;99.90
39815;DHT22;25495;45.948;4.568;2022-11-20T09:40:24;8.90;99.90
39815;DHT22;25495;45.948;4.568;2022-11-20T09:51:49;9.00;99.90
39815;DHT22;25495;45.948;4.568;2022-11-20T09:54:22;9.30;99.90
39815;DHT22;25495;45.948;4.568;2022-11-20T09:57:00;9.50;99.90
39815;DHT22;25495;45.948;4.568;2022-11-20T10:02:03;9.60;99.90
39815;DHT22;25495;45.948;4.568;2022-11-20T10:04:33;9.30;99.90
39815;DHT22;25495;45.948;4.568;2022-11-20T10:09:34;9.50;99.90
39815;DHT22;25495;45.948;4.568;2022-11-20T10:12:17;9.80;99.90
39815;DHT22;25495;45.948;4.568;2022-11-20T10:17:53;10.10;99.90
39815;DHT22;25495;45.948;4.568;2022-11-20T10:26:26;10.00;99.90
39815;DHT22;25495;45.948;4.568;2022-11-20T10:31:42;9.80;99.90
39815;DHT22;25495;45.948;4.568;2022-11-20T10:36:58;10.00;99.90
39815;DHT22;25495;45.948;4.568;2022-11-20T10:40:20;9.90;99.90
39815;DHT22;25495;45.948;4.568;2022-11-20T10:42:37;10.00;99.90
39815;DHT22;25495;45.948;4.568;2022-11-20T10:47:39;10.20;99.90
39815;DHT22;25495;45.948;4.568;2022-11-20T10:50:11;10.10;99.90
39815;DHT22;25495;45.948;4.568;2022-11-20T10:55:44;10.40;99.90
39815;DHT22;25495;45.948;4.568;2022-11-20T11:00:40;10.00;99.90
39815;DHT22;25495;45.948;4.568;2022-11-20T11:03:26;10.00;99.90
39815;DHT22;25495;45.948;4.568;2022-11-20T11:06:56;9.60;99.90
39815;DHT22;25495;45.948;4.568;2022-11-20T11:08:59;9.80;99.90
39815;DHT22;25495;45.948;4.568;2022-11-20T11:11:29;9.70;99.90
39815;DHT22;25495;45.948;4.568;2022-11-20T11:14:12;9.70;99.90
39815;DHT22;25495;45.948;4.568;2022-11-20T11:16:53;10.10;99.90
39815;DHT22;25495;45.948;4.568;2022-11-20T11:19:19;10.10;99.90
39815;DHT22;25495;45.948;4.568;2022-11-20T11:21:51;9.80;99.90
39815;DHT22;25495;45.948;4.568;2022-11-20T11:24:26;10.10;99.90
39815;DHT22;25495;45.948;4.568;2022-11-20T11:27:04;10.20;99.90
39815;DHT22;25495;45.948;4.568;2022-11-20T11:29:36;10.30;99.90
39815;DHT22;25495;45.948;4.568;2022-11-20T11:32:17;10.40;99.90
39815;DHT22;25495;45.948;4.568;2022-11-20T11:34:44;10.20;99.90
39815;DHT22;25495;45.948;4.568;2022-11-20T11:37:18;10.40;99.90
39815;DHT22;25495;45.948;4.568;2022-11-20T11:39:48;10.50;99.90
39815;DHT22;25495;45.948;4.568;2022-11-20T11:42:19;10.60;99.90
39815;DHT22;25495;45.948;4.568;2022-11-20T11:44:47;10.60;99.90
39815;DHT22;25495;45.948;4.568;2022-11-20T11:47:58;10.40;99.90
39815;DHT22;25495;45.948;4.568;2022-11-20T11:50:28;10.70;99.90
39815;DHT22;25495;45.948;4.568;2022-11-20T11:53:12;10.90;99.90
39815;DHT22;25495;45.948;4.568;2022-11-20T11:56:03;10.80;99.90
39815;DHT22;25495;45.948;4.568;2022-11-20T11:58:40;10.70;99.90
39815;DHT22;25495;45.948;4.568;2022-11-20T12:06:36;10.90;99.90
39815;DHT22;25495;45.948;4.568;2022-11-20T12:09:09;10.70;99.90
39815;DHT22;25495;45.948;4.568;2022-11-20T12:11:54;10.40;99.90
39815;DHT22;25495;45.948;4.568;2022-11-20T12:14:39;10.70;99.90
39815;DHT22;25495;45.948;4.568;2022-11-20T12:17:10;10.60;99.90
39815;DHT22;25495;45.948;4.568;2022-11-20T12:19:36;10.60;99.90
39815;DHT22;25495;45.948;4.568;2022-11-20T12:24:59;10.60;99.90
39815;DHT22;25495;45.948;4.568;2022-11-20T12:27:55;10.70;99.90
39815;DHT22;25495;45.948;4.568;2022-11-20T12:30:24;10.60;99.90
39815;DHT22;25495;45.948;4.568;2022-11-20T12:35:51;10.70;99.90
39815;DHT22;25495;45.948;4.568;2022-11-20T12:38:50;10.60;99.90
39815;DHT22;25495;45.948;4.568;2022-11-20T12:59:08;10.40;97.70
39815;DHT22;25495;45.948;4.568;2022-11-20T13:07:07;10.60;99.70
39815;DHT22;25495;45.948;4.568;2022-11-20T13:09:37;10.60;98.40
39815;DHT22;25495;45.948;4.568;2022-11-20T13:12:16;10.70;98.60
39815;DHT22;25495;45.948;4.568;2022-11-20T13:18:02;10.40;98.80
39815;DHT22;25495;45.948;4.568;2022-11-20T13:20:30;10.40;97.20
39815;DHT22;25495;45.948;4.568;2022-11-20T13:22:58;10.40;96.50
39815;DHT22;25495;45.948;4.568;2022-11-20T13:25:35;10.20;96.60
39815;DHT22;25495;45.948;4.568;2022-11-20T13:30:53;10.20;96.90
39815;DHT22;25495;45.948;4.568;2022-11-20T13:33:27;10.20;96.90
39815;DHT22;25495;45.948;4.568;2022-11-20T13:36:03;10.20;97.40
39815;DHT22;25495;45.948;4.568;2022-11-20T13:38:51;10.00;96.50
39815;DHT22;25495;45.948;4.568;2022-11-20T13:41:32;10.10;96.40
39815;DHT22;25495;45.948;4.568;2022-11-20T13:44:13;10.00;96.90
39815;DHT22;25495;45.948;4.568;2022-11-20T13:46:45;10.10;97.30
39815;DHT22;25495;45.948;4.568;2022-11-20T13:51:44;10.20;96.30
39815;DHT22;25495;45.948;4.568;2022-11-20T13:54:45;10.00;95.50
39815;DHT22;25495;45.948;4.568;2022-11-20T13:57:40;10.10;96.90
39815;DHT22;25495;45.948;4.568;2022-11-20T14:00:15;10.00;97.60
39815;DHT22;25495;45.948;4.568;2022-11-20T14:02:43;9.90;98.00
39815;DHT22;25495;45.948;4.568;2022-11-20T14:05:39;9.80;99.10
39815;DHT22;25495;45.948;4.568;2022-11-20T14:08:17;9.80;98.70
39815;DHT22;25495;45.948;4.568;2022-11-20T14:10:48;9.60;99.90
39815;DHT22;25495;45.948;4.568;2022-11-20T14:13:21;9.60;99.90
39815;DHT22;25495;45.948;4.568;2022-11-20T14:15:47;9.70;99.90
39815;DHT22;25495;45.948;4.568;2022-11-20T14:18:20;9.70;99.90
39815;DHT22;25495;45.948;4.568;2022-11-20T14:20:51;9.60;99.70
39815;DHT22;25495;45.948;4.568;2022-11-20T14:23:27;9.50;99.80
39815;DHT22;25495;45.948;4.568;2022-11-20T14:25:54;9.30;99.90
39815;DHT22;25495;45.948;4.568;2022-11-20T14:28:29;9.30;99.90
39815;DHT22;25495;45.948;4.568;2022-11-20T14:30:57;9.30;99.90
39815;DHT22;25495;45.948;4.568;2022-11-20T14:33:25;9.20;99.90
39815;DHT22;25495;45.948;4.568;2022-11-20T14:35:56;9.10;99.90
39815;DHT22;25495;45.948;4.568;2022-11-20T14:38:27;9.00;99.90
39815;DHT22;25495;45.948;4.568;2022-11-20T14:40:53;9.00;99.90
39815;DHT22;25495;45.948;4.568;2022-11-20T14:43:26;8.90;99.90
39815;DHT22;25495;45.948;4.568;2022-11-20T14:46:03;8.90;99.90
39815;DHT22;25495;45.948;4.568;2022-11-20T14:48:39;8.90;99.90
39815;DHT22;25495;45.948;4.568;2022-11-20T14:51:09;8.90;99.90
39815;DHT22;25495;45.948;4.568;2022-11-20T14:53:36;8.90;99.90
39815;DHT22;25495;45.948;4.568;2022-11-20T14:56:02;8.90;99.90
39815;DHT22;25495;45.948;4.568;2022-11-20T14:58:30;9.00;99.90
39815;DHT22;25495;45.948;4.568;2022-11-20T15:03:38;9.00;99.90
39815;DHT22;25495;45.948;4.568;2022-11-20T15:06:10;8.90;99.90
39815;DHT22;25495;45.948;4.568;2022-11-20T15:08:36;8.90;99.90
39815;DHT22;25495;45.948;4.568;2022-11-20T15:11:02;8.80;99.90
39815;DHT22;25495;45.948;4.568;2022-11-20T15:13:33;8.80;99.90
39815;DHT22;25495;45.948;4.568;2022-11-20T15:16:08;8.80;99.90
39815;DHT22;25495;45.948;4.568;2022-11-20T15:18:40;8.70;99.90
39815;DHT22;25495;45.948;4.568;2022-11-20T15:21:11;8.70;99.90
39815;DHT22;25495;45.948;4.568;2022-11-20T15:23:37;8.70;99.90
39815;DHT22;25495;45.948;4.568;2022-11-20T15:26:05;8.70;99.90
39815;DHT22;25495;45.948;4.568;2022-11-20T15:28:40;8.60;99.90
39815;DHT22;25495;45.948;4.568;2022-11-20T15:31:09;8.60;99.90
39815;DHT22;25495;45.948;4.568;2022-11-20T15:33:36;8.60;99.90
39815;DHT22;25495;45.948;4.568;2022-11-20T15:36:02;8.50;99.90
39815;DHT22;25495;45.948;4.568;2022-11-20T15:38:28;8.60;99.90
39815;DHT22;25495;45.948;4.568;2022-11-20T15:40:54;8.50;99.90
39815;DHT22;25495;45.948;4.568;2022-11-20T15:43:20;8.50;99.90
39815;DHT22;25495;45.948;4.568;2022-11-20T15:45:51;8.50;99.90
39815;DHT22;25495;45.948;4.568;2022-11-20T15:48:30;8.30;99.90
39815;DHT22;25495;45.948;4.568;2022-11-20T15:51:01;8.40;99.90
39815;DHT22;25495;45.948;4.568;2022-11-20T15:53:29;8.30;99.90
39815;DHT22;25495;45.948;4.568;2022-11-20T15:55:54;8.30;99.90
39815;DHT22;25495;45.948;4.568;2022-11-20T15:58:20;8.30;99.90
39815;DHT22;25495;45.948;4.568;2022-11-20T16:00:48;8.30;99.90
39815;DHT22;25495;45.948;4.568;2022-11-20T16:03:15;8.30;99.90
39815;DHT22;25495;45.948;4.568;2022-11-20T16:05:41;8.20;99.90
39815;DHT22;25495;45.948;4.568;2022-11-20T16:08:08;8.20;99.90
39815;DHT22;25495;45.948;4.568;2022-11-20T16:10:33;8.20;99.90
39815;DHT22;25495;45.948;4.568;2022-11-20T16:12:59;8.20;99.90
39815;DHT22;25495;45.948;4.568;2022-11-20T16:15:53;8.20;99.90
39815;DHT22;25495;45.948;4.568;2022-11-20T16:18:22;8.10;99.90
39815;DHT22;25495;45.948;4.568;2022-11-20T16:20:49;8.10;99.90
39815;DHT22;25495;45.948;4.568;2022-11-20T16:23:15;8.10;99.90
39815;DHT22;25495;45.948;4.568;2022-11-20T16:25:42;8.10;99.90
39815;DHT22;25495;45.948;4.568;2022-11-20T16:28:08;8.10;99.90
39815;DHT22;25495;45.948;4.568;2022-11-20T16:30:34;8.10;99.90
39815;DHT22;25495;45.948;4.568;2022-11-20T16:33:01;8.00;99.90
39815;DHT22;25495;45.948;4.568;2022-11-20T16:35:28;8.00;99.90
39815;DHT22;25495;45.948;4.568;2022-11-20T16:37:55;7.90;99.90
39815;DHT22;25495;45.948;4.568;2022-11-20T16:40:21;7.90;99.90
39815;DHT22;25495;45.948;4.568;2022-11-20T16:42:46;7.90;99.90
39815;DHT22;25495;45.948;4.568;2022-11-20T16:45:12;7.80;99.90
39815;DHT22;25495;45.948;4.568;2022-11-20T16:47:38;7.80;99.90
39815;DHT22;25495;45.948;4.568;2022-11-20T16:50:04;7.80;99.90
39815;DHT22;25495;45.948;4.568;2022-11-20T16:52:31;7.80;99.90
39815;DHT22;25495;45.948;4.568;2022-11-20T16:54:57;7.90;99.90
39815;DHT22;25495;45.948;4.568;2022-11-20T16:57:23;7.90;99.90
39815;DHT22;25495;45.948;4.568;2022-11-20T16:59:49;7.90;99.90
39815;DHT22;25495;45.948;4.568;2022-11-20T17:02:15;7.90;99.90
39815;DHT22;25495;45.948;4.568;2022-11-20T17:04:41;7.90;99.90
39815;DHT22;25495;45.948;4.568;2022-11-20T17:07:07;7.90;99.90
39815;DHT22;25495;45.948;4.568;2022-11-20T17:09:33;7.80;99.90
39815;DHT22;25495;45.948;4.568;2022-11-20T17:11:59;7.70;99.90
39815;DHT22;25495;45.948;4.568;2022-11-20T17:14:25;7.70;99.90
39815;DHT22;25495;45.948;4.568;2022-11-20T17:16:51;7.70;99.90
39815;DHT22;25495;45.948;4.568;2022-11-20T17:19:16;7.70;99.90
39815;DHT22;25495;45.948;4.568;2022-11-20T17:21:42;7.70;99.90
39815;DHT22;25495;45.948;4.568;2022-11-20T17:24:11;7.70;99.90
39815;DHT22;25495;45.948;4.568;2022-11-20T17:26:39;7.70;99.90
39815;DHT22;25495;45.948;4.568;2022-11-20T17:34:04;7.80;99.90
39815;DHT22;25495;45.948;4.568;2022-11-20T17:36:31;7.70;99.90